Terminal Aerodrome Forecast
Issued by NWS Melbourne, FL

Home | Current Version | Previous Version | Text Only | Print | Product List | Glossary On
Versions: 1 2 3 4 5 6 7 8 9 10 11 12 13 14 15 16 17
355
FTUS42 KMLB 222059 AAB
TAFDAB
TAF AMD
KDAB 222059Z 2221/2318 05014G19KT P6SM FEW070
     FM230200 02012G17KT P6SM VCSH BKN020
     FM231400 05017G25KT P6SM VCSH BKN025=

USA.gov is the U.S. government's official web portal to all federal, state and local government web resources and services.